createdAt,value
2019-02-28T00:00:37.269Z,5.93
2019-02-28T00:03:45.961Z,5.90
2019-02-28T00:06:52.303Z,5.81
2019-02-28T00:09:59.003Z,5.93
2019-02-28T00:13:05.318Z,5.97
2019-02-28T00:16:11.759Z,5.81
2019-02-28T00:19:18.040Z,5.77
2019-02-28T00:22:24.847Z,5.84
2019-02-28T00:25:31.654Z,5.81
2019-02-28T00:28:38.731Z,5.80
2019-02-28T00:31:49.457Z,5.84
2019-02-28T00:34:53.258Z,5.67
2019-02-28T00:37:59.634Z,5.67
2019-02-28T00:41:09.352Z,5.56
2019-02-28T00:44:15.311Z,5.49
2019-02-28T00:47:21.712Z,5.38
2019-02-28T00:50:28.380Z,5.35
2019-02-28T00:53:37.421Z,5.28
2019-02-28T00:56:43.262Z,5.31
2019-02-28T00:59:49.695Z,5.22
2019-02-28T01:02:57.945Z,5.17
2019-02-28T01:06:04.116Z,5.27
2019-02-28T01:09:10.402Z,5.41
2019-02-28T01:12:19.166Z,5.32
2019-02-28T01:15:24.825Z,5.49
2019-02-28T01:18:34.458Z,5.43
2019-02-28T01:21:40.172Z,5.46
2019-02-28T01:24:47.689Z,5.56
2019-02-28T01:27:54.194Z,5.54
2019-02-28T01:31:00.808Z,5.45
2019-02-28T01:34:07.965Z,5.55
2019-02-28T01:37:14.406Z,5.64
2019-02-28T01:40:20.775Z,5.61
2019-02-28T01:43:28.770Z,5.55
2019-02-28T01:46:36.258Z,5.51
2019-02-28T01:49:42.821Z,5.62
2019-02-28T01:52:49.185Z,5.64
2019-02-28T01:55:55.696Z,5.61
2019-02-28T01:59:02.120Z,5.48
2019-02-28T02:02:09.474Z,5.52
2019-02-28T02:05:17.031Z,5.61
2019-02-28T02:08:23.844Z,5.62
2019-02-28T02:11:30.174Z,5.51
2019-02-28T02:14:36.517Z,5.48
2019-02-28T02:17:42.865Z,5.42
2019-02-28T02:20:49.623Z,5.50
2019-02-28T02:23:55.877Z,5.46
2019-02-28T02:27:02.218Z,5.47
2019-02-28T02:30:15.059Z,5.15
2019-02-28T02:33:20.573Z,5.49
2019-02-28T02:36:26.857Z,5.44
2019-02-28T02:39:33.410Z,5.41
2019-02-28T02:42:47.616Z,5.41
2019-02-28T02:45:47.893Z,5.37
2019-02-28T02:48:54.278Z,5.42
2019-02-28T02:52:00.620Z,5.34
2019-02-28T02:55:07.067Z,5.37
2019-02-28T02:58:13.515Z,5.28
2019-02-28T03:01:23.191Z,5.37
2019-02-28T03:04:28.390Z,5.28
2019-02-28T03:07:34.745Z,5.38
2019-02-28T03:10:41.224Z,5.33
2019-02-28T03:13:47.609Z,5.28
2019-02-28T03:16:53.883Z,5.35
2019-02-28T03:20:00.711Z,5.29
2019-02-28T03:23:07.569Z,5.27
2019-02-28T03:26:13.901Z,5.29
2019-02-28T03:29:20.368Z,5.24
2019-02-28T03:32:39.796Z,5.16
2019-02-28T03:35:43.279Z,5.08
2019-02-28T03:38:48.576Z,5.18
2019-02-28T03:41:52.848Z,5.25
2019-02-28T03:44:59.807Z,5.19
2019-02-28T03:48:06.332Z,5.10
2019-02-28T03:51:12.718Z,5.13
2019-02-28T03:54:19.290Z,5.07
2019-02-28T03:57:29.415Z,5.04
2019-02-28T04:00:34.343Z,5.01
2019-02-28T04:03:40.722Z,5.00
2019-02-28T04:06:47.909Z,4.94
2019-02-28T04:09:54.599Z,4.99
2019-02-28T04:13:01.094Z,4.93
2019-02-28T04:16:09.490Z,4.90
2019-02-28T04:19:21.370Z,4.85
2019-02-28T04:22:24.017Z,4.89
2019-02-28T04:25:30.640Z,4.87
2019-02-28T04:28:37.289Z,4.80
2019-02-28T04:31:44.576Z,4.76
2019-02-28T04:34:51.132Z,4.85
2019-02-28T04:37:57.623Z,4.78
2019-02-28T04:41:03.955Z,4.78
2019-02-28T04:44:10.274Z,4.80
2019-02-28T04:47:16.892Z,4.77
2019-02-28T04:50:31.330Z,4.70
2019-02-28T04:53:34.153Z,4.78
2019-02-28T04:56:42.355Z,4.71
2019-02-28T04:59:48.687Z,4.66
2019-02-28T05:02:56.284Z,4.69
2019-02-28T05:06:02.629Z,4.68
2019-02-28T05:09:10.774Z,4.68
2019-02-28T05:12:17.184Z,4.68
2019-02-28T05:15:23.596Z,4.58
2019-02-28T05:18:29.874Z,4.63
2019-02-28T05:21:36.316Z,4.64
2019-02-28T05:24:43.676Z,4.52
2019-02-28T05:27:50.186Z,4.52
2019-02-28T05:30:56.533Z,4.65
2019-02-28T05:34:02.903Z,4.69
2019-02-28T05:37:12.503Z,4.56
2019-02-28T05:40:18.834Z,4.56
2019-02-28T05:43:25.190Z,4.53
2019-02-28T05:46:31.582Z,4.48
2019-02-28T05:49:40.687Z,4.40
2019-02-28T05:52:45.963Z,4.41
2019-02-28T05:55:52.220Z,4.34
2019-02-28T05:58:58.614Z,4.39
2019-02-28T06:02:04.859Z,4.32
2019-02-28T06:05:11.855Z,4.32
2019-02-28T06:08:19.166Z,4.31
2019-02-28T06:11:25.872Z,4.17
2019-02-28T06:14:32.124Z,4.30
2019-02-28T06:17:38.567Z,4.32
2019-02-28T06:20:44.807Z,4.42
2019-02-28T06:23:51.263Z,4.39
2019-02-28T06:26:57.857Z,4.27
2019-02-28T06:30:04.408Z,4.24
2019-02-28T06:33:10.752Z,4.17
2019-02-28T06:36:17.208Z,4.24
2019-02-28T06:39:26.855Z,4.30
2019-02-28T06:42:32.087Z,4.23
2019-02-28T06:45:38.423Z,4.27
2019-02-28T06:48:44.756Z,4.16
2019-02-28T06:51:51.321Z,4.22
2019-02-28T06:54:58.414Z,4.29
2019-02-28T06:58:04.732Z,4.30
2019-02-28T07:01:11.102Z,4.29
2019-02-28T07:04:17.412Z,4.42
2019-02-28T07:07:24.909Z,4.43
2019-02-28T07:10:31.304Z,4.50
2019-02-28T07:13:39.983Z,4.48
2019-02-28T07:16:45.806Z,4.47
2019-02-28T07:19:53.360Z,4.54
2019-02-28T07:22:59.691Z,4.53
2019-02-28T07:26:06.005Z,4.69
2019-02-28T07:29:12.393Z,4.70
2019-02-28T07:32:18.965Z,4.74
2019-02-28T07:35:25.327Z,4.88
2019-02-28T07:38:31.605Z,5.00
2019-02-28T07:41:38.277Z,5.14
2019-02-28T07:44:44.883Z,5.17
2019-02-28T07:47:52.668Z,5.46
2019-02-28T07:50:59.473Z,5.44
2019-02-28T07:54:05.785Z,5.48
2019-02-28T07:57:16.947Z,5.45
2019-02-28T08:00:20.501Z,5.56
2019-02-28T08:03:26.986Z,5.70
2019-02-28T08:06:36.258Z,5.74
2019-02-28T08:09:41.647Z,5.90
2019-02-28T08:12:47.887Z,6.05
2019-02-28T08:15:56.509Z,6.11
2019-02-28T08:19:02.282Z,6.01
2019-02-28T08:22:09.285Z,6.45
2019-02-28T08:25:15.618Z,6.61
2019-02-28T08:28:24.076Z,6.79
2019-02-28T08:31:31.988Z,6.73
2019-02-28T08:34:39.314Z,7.10
2019-02-28T08:37:45.597Z,7.14
2019-02-28T08:40:51.988Z,7.48
2019-02-28T08:43:58.613Z,7.52
2019-02-28T08:47:05.140Z,7.80
2019-02-28T08:50:19.065Z,8.06
2019-02-28T08:53:22.640Z,8.13
2019-02-28T08:56:32.277Z,8.55
2019-02-28T08:59:39.868Z,8.61
2019-02-28T09:02:46.193Z,8.23
2019-02-28T09:05:52.924Z,8.38
2019-02-28T09:08:59.911Z,8.50
2019-02-28T09:12:09.353Z,8.66
2019-02-28T09:15:15.806Z,8.72
2019-02-28T09:18:22.088Z,8.72
2019-02-28T09:21:28.693Z,8.60
2019-02-28T09:24:35.140Z,8.41
2019-02-28T09:27:42.197Z,8.19
2019-02-28T09:30:48.988Z,8.31
2019-02-28T09:33:58.739Z,8.29
2019-02-28T09:37:03.590Z,8.06
2019-02-28T09:40:11.763Z,8.05
2019-02-28T09:43:18.359Z,7.97
2019-02-28T09:46:25.103Z,7.89
2019-02-28T09:49:31.701Z,7.93
2019-02-28T09:52:41.532Z,7.64
2019-02-28T09:55:46.245Z,7.71
2019-02-28T09:58:52.610Z,7.16
2019-02-28T10:02:01.787Z,7.50
2019-02-28T10:05:08.938Z,7.75
2019-02-28T10:08:15.350Z,7.69
2019-02-28T10:11:21.930Z,7.63
2019-02-28T10:14:28.977Z,7.55
2019-02-28T10:17:37.166Z,7.52
2019-02-28T10:20:43.560Z,7.43
2019-02-28T10:23:49.951Z,7.28
2019-02-28T10:26:56.380Z,7.37
2019-02-28T10:30:02.722Z,7.32
2019-02-28T10:33:09.226Z,7.26
2019-02-28T10:36:15.655Z,7.29
2019-02-28T10:39:22.353Z,7.12
2019-02-28T10:42:28.714Z,7.06
2019-02-28T10:45:35.203Z,7.14
2019-02-28T10:48:50.438Z,7.16
2019-02-28T10:51:50.444Z,7.10
2019-02-28T10:54:56.833Z,7.20
2019-02-28T10:58:03.647Z,7.07
2019-02-28T11:01:11.431Z,7.11
2019-02-28T11:04:18.270Z,7.06
2019-02-28T11:07:24.864Z,7.29
2019-02-28T11:10:35.545Z,7.48
2019-02-28T11:13:42.282Z,7.65
2019-02-28T11:16:48.720Z,7.65
2019-02-28T11:19:55.253Z,7.63
2019-02-28T11:23:01.606Z,7.60
2019-02-28T11:26:09.611Z,7.36
2019-02-28T11:29:15.978Z,7.51
2019-02-28T11:32:22.645Z,7.42
2019-02-28T11:35:29.389Z,7.31
2019-02-28T11:38:35.659Z,7.22
2019-02-28T11:41:42.101Z,7.07
2019-02-28T11:44:48.494Z,7.04
2019-02-28T11:47:56.249Z,6.99
2019-02-28T11:51:02.765Z,6.82
2019-02-28T11:54:12.287Z,6.94
2019-02-28T11:57:17.623Z,6.82
2019-02-28T12:00:29.335Z,6.83
2019-02-28T12:08:22.408Z,6.81
2019-02-28T12:11:29.920Z,6.70
2019-02-28T12:14:36.379Z,6.66
2019-02-28T12:17:42.722Z,6.84
2019-02-28T12:20:49.353Z,6.75
2019-02-28T12:23:57.295Z,6.84
2019-02-28T12:27:04.205Z,6.97
2019-02-28T12:30:16.003Z,6.98
2019-02-28T12:33:23.314Z,6.98
2019-02-28T12:36:29.976Z,6.87
2019-02-28T12:39:37.081Z,6.86
2019-02-28T12:42:43.552Z,6.78
2019-02-28T12:45:50.153Z,6.95
2019-02-28T12:48:56.467Z,7.04
2019-02-28T12:52:04.049Z,7.03
2019-02-28T12:55:12.504Z,6.96
2019-02-28T12:58:19.192Z,6.86
2019-02-28T13:01:25.539Z,7.12
2019-02-28T13:04:32.540Z,7.38
2019-02-28T13:07:40.192Z,7.61
2019-02-28T13:10:46.686Z,7.66
2019-02-28T13:13:53.330Z,7.56
2019-02-28T13:16:59.719Z,7.75
2019-02-28T13:20:09.423Z,7.73
2019-02-28T13:23:17.140Z,7.28
2019-02-28T13:26:23.730Z,7.46
2019-02-28T13:29:32.431Z,7.29
2019-02-28T13:32:39.159Z,7.33
2019-02-28T13:35:47.377Z,6.81
2019-02-28T13:38:55.770Z,7.01
2019-02-28T13:42:03.178Z,6.81
2019-02-28T13:45:16.196Z,6.87
2019-02-28T13:48:26.206Z,6.90
2019-02-28T13:51:27.860Z,6.75
2019-02-28T13:54:34.346Z,6.83
2019-02-28T13:57:43.403Z,6.86
2019-02-28T14:00:49.032Z,6.87
2019-02-28T14:03:55.388Z,6.77
2019-02-28T14:07:02.111Z,6.70
2019-02-28T14:10:11.410Z,6.57
2019-02-28T14:13:18.016Z,6.65
2019-02-28T14:16:27.000Z,6.48
2019-02-28T14:19:33.474Z,6.12
2019-02-28T14:22:42.766Z,6.21
2019-02-28T14:25:47.856Z,5.64
2019-02-28T14:28:55.277Z,6.06
2019-02-28T14:32:04.622Z,5.95
2019-02-28T14:35:09.965Z,5.88
2019-02-28T14:38:16.454Z,5.44
2019-02-28T14:41:24.626Z,5.58
2019-02-28T14:44:31.549Z,5.43
2019-02-28T14:47:38.943Z,5.37
2019-02-28T14:50:46.172Z,5.08
2019-02-28T14:53:52.436Z,5.06
2019-02-28T14:56:59.408Z,5.01
2019-02-28T15:00:08.219Z,4.95
2019-02-28T15:03:15.054Z,4.64
2019-02-28T15:06:21.496Z,4.71
2019-02-28T15:09:28.152Z,4.62
2019-02-28T15:12:34.538Z,4.54
2019-02-28T15:15:41.061Z,4.62
2019-02-28T15:18:51.054Z,4.71
2019-02-28T15:21:55.912Z,4.73
2019-02-28T15:25:04.290Z,4.67
2019-02-28T15:28:10.736Z,4.26
2019-02-28T15:31:18.585Z,4.26
2019-02-28T15:34:25.062Z,4.38
2019-02-28T15:37:33.682Z,4.26
2019-02-28T15:40:41.615Z,4.11
2019-02-28T15:43:50.314Z,4.13
2019-02-28T15:46:55.970Z,3.88
2019-02-28T15:50:02.296Z,3.81
2019-02-28T15:53:11.247Z,3.62
2019-02-28T15:56:20.062Z,3.84
2019-02-28T15:59:26.765Z,3.84
2019-02-28T16:02:33.150Z,3.79
2019-02-28T16:05:44.036Z,3.51
2019-02-28T16:08:47.974Z,3.54
2019-02-28T16:11:54.567Z,3.31
2019-02-28T16:15:00.999Z,3.26
2019-02-28T16:18:08.656Z,3.07
2019-02-28T16:21:15.523Z,3.24
2019-02-28T16:24:21.875Z,2.74
2019-02-28T16:27:29.574Z,3.19
2019-02-28T16:30:36.565Z,3.07
2019-02-28T16:33:42.973Z,2.77
2019-02-28T16:36:49.393Z,3.04
2019-02-28T16:39:55.739Z,3.04
2019-02-28T16:43:02.566Z,2.86
2019-02-28T16:46:08.966Z,2.93
2019-02-28T16:49:15.529Z,2.87
2019-02-28T16:52:21.915Z,2.82
2019-02-28T16:55:30.782Z,2.66
2019-02-28T16:58:36.340Z,2.69
2019-02-28T17:01:42.765Z,2.85
2019-02-28T17:04:51.789Z,2.80
2019-02-28T17:07:57.717Z,2.59
2019-02-28T17:11:04.149Z,2.59
2019-02-28T17:14:16.865Z,2.66
2019-02-28T17:17:36.652Z,2.57
2019-02-28T17:20:43.085Z,2.64
2019-02-28T17:23:49.437Z,2.47
2019-02-28T17:27:07.425Z,2.43
2019-02-28T17:30:24.523Z,2.37
2019-02-28T17:33:30.937Z,2.24
2019-02-28T17:36:37.341Z,2.16
2019-02-28T17:39:43.706Z,2.03
2019-02-28T17:42:50.745Z,2.02
2019-02-28T17:45:57.270Z,1.98
2019-02-28T17:49:39.486Z,1.79
2019-02-28T17:53:26.479Z,1.71
2019-02-28T17:57:25.990Z,1.63
2019-02-28T18:01:12.099Z,1.59
2019-02-28T18:04:42.847Z,1.55
2019-02-28T18:08:20.662Z,1.50
2019-02-28T18:12:13.885Z,1.41
2019-02-28T18:15:28.359Z,1.59
2019-02-28T18:18:49.036Z,1.49
2019-02-28T18:22:36.765Z,1.42
2019-02-28T18:26:01.118Z,1.37
2019-02-28T18:29:36.570Z,1.42
2019-02-28T18:32:43.210Z,1.46
2019-02-28T18:35:50.144Z,1.19
2019-02-28T18:38:56.559Z,1.20
2019-02-28T18:42:02.976Z,1.06
2019-02-28T18:45:10.804Z,1.16
2019-02-28T18:48:18.734Z,1.01
2019-02-28T18:51:25.160Z,1.13
2019-02-28T18:54:31.706Z,1.17
2019-02-28T18:57:38.183Z,1.09
2019-02-28T19:00:44.579Z,0.99
2019-02-28T19:03:50.864Z,0.90
2019-02-28T19:06:57.864Z,0.85
2019-02-28T19:10:04.413Z,0.62
2019-02-28T19:13:11.033Z,0.53
2019-02-28T19:16:17.424Z,0.63
2019-02-28T19:19:23.968Z,0.42
2019-02-28T19:22:30.365Z,0.67
2019-02-28T19:25:36.989Z,0.55
2019-02-28T19:28:43.698Z,0.61
2019-02-28T19:31:50.162Z,0.54
2019-02-28T19:34:56.601Z,0.57
2019-02-28T19:38:02.952Z,0.53
2019-02-28T19:41:10.947Z,0.64
2019-02-28T19:44:17.427Z,0.60
2019-02-28T19:47:23.767Z,0.57
2019-02-28T19:50:30.188Z,0.53
2019-02-28T19:53:36.515Z,0.46
2019-02-28T19:56:43.400Z,0.49
2019-02-28T19:59:49.849Z,0.31
2019-02-28T20:02:56.672Z,0.33
2019-02-28T20:06:03.044Z,0.19
2019-02-28T20:09:10.393Z,0.35
2019-02-28T20:12:17.984Z,0.40
2019-02-28T20:15:27.904Z,0.44
2019-02-28T20:18:35.583Z,0.49
2019-02-28T20:21:42.030Z,0.34
2019-02-28T20:24:48.450Z,0.33
2019-02-28T20:27:55.079Z,0.32
2019-02-28T20:31:01.406Z,0.22
2019-02-28T20:34:07.752Z,0.12
2019-02-28T20:37:14.278Z,0.30
2019-02-28T20:40:20.869Z,0.26
2019-02-28T20:43:27.236Z,0.37
2019-02-28T20:46:33.692Z,0.26
2019-02-28T20:49:40.203Z,0.17
2019-02-28T20:52:46.655Z,0.15
2019-02-28T20:55:53.083Z,0.28
2019-02-28T20:58:59.800Z,0.20
2019-02-28T21:02:06.253Z,0.18
2019-02-28T21:05:12.659Z,0.26
2019-02-28T21:08:19.007Z,0.12
2019-02-28T21:11:25.769Z,-0.02
2019-02-28T21:14:32.312Z,0.12
2019-02-28T21:17:38.716Z,0.13
2019-02-28T21:20:45.221Z,0.09
2019-02-28T21:23:51.749Z,0.15
2019-02-28T21:26:58.078Z,-0.16
2019-02-28T21:30:05.238Z,-0.16
2019-02-28T21:33:11.639Z,-0.05
2019-02-28T21:36:18.772Z,-0.09
2019-02-28T21:39:25.234Z,-0.09
2019-02-28T21:42:31.695Z,-0.14
2019-02-28T21:45:38.087Z,-0.21
2019-02-28T21:48:44.528Z,-0.38
2019-02-28T21:51:50.944Z,-0.39
2019-02-28T21:54:59.033Z,-0.28
2019-02-28T21:58:05.366Z,-0.28
2019-02-28T22:01:11.695Z,-0.32
2019-02-28T22:04:18.029Z,-0.19
2019-02-28T22:07:24.599Z,-0.31
2019-02-28T22:10:30.852Z,-0.25
2019-02-28T22:13:38.188Z,-0.14
2019-02-28T22:16:44.675Z,-0.18
2019-02-28T22:19:51.156Z,-0.11
2019-02-28T22:22:57.476Z,-0.19
2019-02-28T22:26:03.941Z,-0.20
2019-02-28T22:29:10.312Z,-0.17
2019-02-28T22:32:24.677Z,-0.15
2019-02-28T22:35:34.467Z,-0.10
2019-02-28T22:38:40.942Z,0.00
2019-02-28T22:41:47.380Z,0.03
2019-02-28T22:44:53.785Z,-0.02
2019-02-28T22:48:00.053Z,-0.03
2019-02-28T22:51:06.880Z,0.00
2019-02-28T22:54:13.319Z,0.00
2019-02-28T22:57:20.761Z,-0.14
2019-02-28T23:00:38.326Z,-0.22
2019-02-28T23:03:46.432Z,-0.16
2019-02-28T23:06:52.770Z,-0.05
2019-02-28T23:09:59.398Z,-0.03
2019-02-28T23:13:05.773Z,-0.15
2019-02-28T23:16:13.803Z,-0.15
2019-02-28T23:19:20.304Z,-0.03
2019-02-28T23:22:26.808Z,-0.25
2019-02-28T23:25:33.171Z,-0.23
2019-02-28T23:28:45.739Z,-0.22
2019-02-28T23:32:25.630Z,-0.20
2019-02-28T23:35:34.934Z,-0.38
2019-02-28T23:38:41.285Z,-0.31
2019-02-28T23:41:47.774Z,-0.43
2019-02-28T23:44:54.232Z,-0.39
2019-02-28T23:48:00.908Z,-0.21
2019-02-28T23:51:07.389Z,-0.19
2019-02-28T23:54:13.751Z,-0.24
2019-02-28T23:57:20.202Z,-0.27
